sensor_id;sensor_type;location;lat;lon;timestamp;P1;durP1;ratioP1;P2;durP2;ratioP2
74335;SDS011;62755;-33.398;-70.572;2023-09-07T00:00:16;48.58;;;17.98;;
74335;SDS011;62755;-33.398;-70.572;2023-09-07T00:02:46;30.70;;;10.68;;
74335;SDS011;62755;-33.398;-70.572;2023-09-07T00:05:15;50.53;;;20.67;;
74335;SDS011;62755;-33.398;-70.572;2023-09-07T00:07:44;22.90;;;8.82;;
74335;SDS011;62755;-33.398;-70.572;2023-09-07T00:10:14;54.65;;;19.95;;
74335;SDS011;62755;-33.398;-70.572;2023-09-07T00:12:44;36.22;;;14.93;;
74335;SDS011;62755;-33.398;-70.572;2023-09-07T00:15:13;81.68;;;28.10;;
74335;SDS011;62755;-33.398;-70.572;2023-09-07T00:17:46;29.13;;;11.13;;
74335;SDS011;62755;-33.398;-70.572;2023-09-07T00:20:17;53.30;;;18.77;;
74335;SDS011;62755;-33.398;-70.572;2023-09-07T00:22:47;59.08;;;22.83;;
74335;SDS011;62755;-33.398;-70.572;2023-09-07T00:25:17;76.82;;;27.02;;
74335;SDS011;62755;-33.398;-70.572;2023-09-07T00:27:46;69.68;;;26.98;;
74335;SDS011;62755;-33.398;-70.572;2023-09-07T00:30:16;24.30;;;8.15;;
74335;SDS011;62755;-33.398;-70.572;2023-09-07T00:32:47;46.08;;;17.10;;
74335;SDS011;62755;-33.398;-70.572;2023-09-07T00:35:17;54.60;;;18.60;;
74335;SDS011;62755;-33.398;-70.572;2023-09-07T00:37:46;30.73;;;11.00;;
74335;SDS011;62755;-33.398;-70.572;2023-09-07T00:40:16;34.85;;;11.85;;
74335;SDS011;62755;-33.398;-70.572;2023-09-07T00:42:45;54.17;;;19.30;;
74335;SDS011;62755;-33.398;-70.572;2023-09-07T00:45:15;66.07;;;24.60;;
74335;SDS011;62755;-33.398;-70.572;2023-09-07T00:47:45;30.15;;;9.73;;
74335;SDS011;62755;-33.398;-70.572;2023-09-07T00:50:16;73.65;;;31.08;;
74335;SDS011;62755;-33.398;-70.572;2023-09-07T00:52:46;63.38;;;26.30;;
74335;SDS011;62755;-33.398;-70.572;2023-09-07T00:55:16;30.00;;;10.75;;
74335;SDS011;62755;-33.398;-70.572;2023-09-07T00:57:45;28.00;;;10.20;;
74335;SDS011;62755;-33.398;-70.572;2023-09-07T01:00:15;22.30;;;8.27;;
74335;SDS011;62755;-33.398;-70.572;2023-09-07T01:02:47;18.80;;;6.55;;
74335;SDS011;62755;-33.398;-70.572;2023-09-07T01:05:17;56.90;;;18.45;;
74335;SDS011;62755;-33.398;-70.572;2023-09-07T01:07:47;17.40;;;4.88;;
74335;SDS011;62755;-33.398;-70.572;2023-09-07T01:10:21;7.90;;;2.28;;
74335;SDS011;62755;-33.398;-70.572;2023-09-07T01:12:51;13.68;;;4.78;;
74335;SDS011;62755;-33.398;-70.572;2023-09-07T01:15:20;23.25;;;9.98;;
74335;SDS011;62755;-33.398;-70.572;2023-09-07T01:17:52;9.20;;;2.92;;
74335;SDS011;62755;-33.398;-70.572;2023-09-07T01:20:22;7.28;;;2.70;;
74335;SDS011;62755;-33.398;-70.572;2023-09-07T01:22:54;3.22;;;0.55;;
74335;SDS011;62755;-33.398;-70.572;2023-09-07T01:25:24;4.55;;;1.30;;
74335;SDS011;62755;-33.398;-70.572;2023-09-07T01:27:54;3.05;;;0.80;;
74335;SDS011;62755;-33.398;-70.572;2023-09-07T01:30:24;4.88;;;0.90;;
74335;SDS011;62755;-33.398;-70.572;2023-09-07T01:32:56;3.83;;;0.65;;
74335;SDS011;62755;-33.398;-70.572;2023-09-07T01:35:25;14.88;;;4.22;;
74335;SDS011;62755;-33.398;-70.572;2023-09-07T01:37:57;24.08;;;8.82;;
74335;SDS011;62755;-33.398;-70.572;2023-09-07T01:40:26;10.10;;;3.75;;
74335;SDS011;62755;-33.398;-70.572;2023-09-07T01:42:56;25.30;;;9.57;;
74335;SDS011;62755;-33.398;-70.572;2023-09-07T01:45:25;23.52;;;7.90;;
74335;SDS011;62755;-33.398;-70.572;2023-09-07T01:47:55;31.23;;;12.25;;
74335;SDS011;62755;-33.398;-70.572;2023-09-07T01:50:24;76.68;;;29.55;;
74335;SDS011;62755;-33.398;-70.572;2023-09-07T01:52:54;13.23;;;4.72;;
74335;SDS011;62755;-33.398;-70.572;2023-09-07T01:55:25;7.70;;;2.15;;
74335;SDS011;62755;-33.398;-70.572;2023-09-07T01:57:56;8.38;;;3.35;;
74335;SDS011;62755;-33.398;-70.572;2023-09-07T02:00:25;9.55;;;3.13;;
74335;SDS011;62755;-33.398;-70.572;2023-09-07T02:02:55;47.63;;;21.10;;
74335;SDS011;62755;-33.398;-70.572;2023-09-07T02:05:24;53.22;;;25.02;;
74335;SDS011;62755;-33.398;-70.572;2023-09-07T02:07:54;78.90;;;38.30;;
74335;SDS011;62755;-33.398;-70.572;2023-09-07T02:10:25;49.35;;;17.17;;
74335;SDS011;62755;-33.398;-70.572;2023-09-07T02:12:54;48.92;;;17.58;;
74335;SDS011;62755;-33.398;-70.572;2023-09-07T02:15:24;26.80;;;11.15;;
74335;SDS011;62755;-33.398;-70.572;2023-09-07T02:17:54;30.27;;;13.30;;
74335;SDS011;62755;-33.398;-70.572;2023-09-07T02:20:23;22.35;;;8.02;;
74335;SDS011;62755;-33.398;-70.572;2023-09-07T02:22:52;29.40;;;10.75;;
74335;SDS011;62755;-33.398;-70.572;2023-09-07T02:25:22;40.15;;;13.85;;
74335;SDS011;62755;-33.398;-70.572;2023-09-07T02:27:53;61.72;;;23.90;;
74335;SDS011;62755;-33.398;-70.572;2023-09-07T02:30:22;22.02;;;8.68;;
74335;SDS011;62755;-33.398;-70.572;2023-09-07T02:32:52;85.13;;;34.22;;
74335;SDS011;62755;-33.398;-70.572;2023-09-07T02:35:21;45.50;;;16.40;;
74335;SDS011;62755;-33.398;-70.572;2023-09-07T02:37:51;94.28;;;35.50;;
74335;SDS011;62755;-33.398;-70.572;2023-09-07T02:40:20;46.05;;;19.10;;
74335;SDS011;62755;-33.398;-70.572;2023-09-07T02:42:50;34.08;;;12.77;;
74335;SDS011;62755;-33.398;-70.572;2023-09-07T02:45:21;66.60;;;28.08;;
74335;SDS011;62755;-33.398;-70.572;2023-09-07T02:47:50;37.40;;;13.77;;
74335;SDS011;62755;-33.398;-70.572;2023-09-07T02:50:20;34.90;;;13.13;;
74335;SDS011;62755;-33.398;-70.572;2023-09-07T02:52:52;14.57;;;4.03;;
74335;SDS011;62755;-33.398;-70.572;2023-09-07T02:55:22;12.80;;;4.25;;
74335;SDS011;62755;-33.398;-70.572;2023-09-07T02:57:51;14.50;;;5.57;;
74335;SDS011;62755;-33.398;-70.572;2023-09-07T03:00:23;14.32;;;4.82;;
74335;SDS011;62755;-33.398;-70.572;2023-09-07T03:02:52;12.30;;;3.58;;
74335;SDS011;62755;-33.398;-70.572;2023-09-07T03:05:22;18.80;;;7.43;;
74335;SDS011;62755;-33.398;-70.572;2023-09-07T03:07:51;20.08;;;8.10;;
74335;SDS011;62755;-33.398;-70.572;2023-09-07T03:10:20;75.60;;;28.75;;
74335;SDS011;62755;-33.398;-70.572;2023-09-07T03:12:50;73.13;;;28.65;;
74335;SDS011;62755;-33.398;-70.572;2023-09-07T03:15:22;15.18;;;6.20;;
74335;SDS011;62755;-33.398;-70.572;2023-09-07T03:17:52;22.65;;;8.82;;
74335;SDS011;62755;-33.398;-70.572;2023-09-07T03:20:21;52.40;;;22.15;;
74335;SDS011;62755;-33.398;-70.572;2023-09-07T03:22:51;5.85;;;2.45;;
74335;SDS011;62755;-33.398;-70.572;2023-09-07T03:25:20;13.90;;;5.45;;
74335;SDS011;62755;-33.398;-70.572;2023-09-07T03:27:50;31.02;;;13.55;;
74335;SDS011;62755;-33.398;-70.572;2023-09-07T03:30:19;22.10;;;9.48;;
74335;SDS011;62755;-33.398;-70.572;2023-09-07T03:32:50;10.02;;;4.35;;
74335;SDS011;62755;-33.398;-70.572;2023-09-07T03:35:20;9.15;;;4.03;;
74335;SDS011;62755;-33.398;-70.572;2023-09-07T03:37:49;6.93;;;3.00;;
74335;SDS011;62755;-33.398;-70.572;2023-09-07T03:40:19;2.67;;;1.10;;
74335;SDS011;62755;-33.398;-70.572;2023-09-07T03:42:48;6.70;;;1.77;;
74335;SDS011;62755;-33.398;-70.572;2023-09-07T03:45:18;8.20;;;2.45;;
74335;SDS011;62755;-33.398;-70.572;2023-09-07T03:47:49;4.60;;;0.85;;
74335;SDS011;62755;-33.398;-70.572;2023-09-07T03:50:18;5.30;;;1.35;;
74335;SDS011;62755;-33.398;-70.572;2023-09-07T03:52:48;5.82;;;2.85;;
74335;SDS011;62755;-33.398;-70.572;2023-09-07T03:55:17;6.82;;;1.63;;
74335;SDS011;62755;-33.398;-70.572;2023-09-07T03:57:47;3.30;;;1.10;;
74335;SDS011;62755;-33.398;-70.572;2023-09-07T04:00:17;4.22;;;0.93;;
74335;SDS011;62755;-33.398;-70.572;2023-09-07T04:02:47;2.00;;;0.77;;
74335;SDS011;62755;-33.398;-70.572;2023-09-07T04:05:18;7.28;;;1.67;;
74335;SDS011;62755;-33.398;-70.572;2023-09-07T04:07:50;3.25;;;0.98;;
74335;SDS011;62755;-33.398;-70.572;2023-09-07T04:10:20;25.55;;;12.20;;
74335;SDS011;62755;-33.398;-70.572;2023-09-07T04:12:49;29.40;;;12.65;;
74335;SDS011;62755;-33.398;-70.572;2023-09-07T04:15:18;52.17;;;21.92;;
74335;SDS011;62755;-33.398;-70.572;2023-09-07T04:17:52;111.95;;;44.70;;
74335;SDS011;62755;-33.398;-70.572;2023-09-07T04:20:21;103.93;;;41.92;;
74335;SDS011;62755;-33.398;-70.572;2023-09-07T04:22:52;60.42;;;25.35;;
74335;SDS011;62755;-33.398;-70.572;2023-09-07T04:25:22;73.47;;;32.25;;
74335;SDS011;62755;-33.398;-70.572;2023-09-07T04:27:51;98.93;;;40.53;;
74335;SDS011;62755;-33.398;-70.572;2023-09-07T04:30:22;60.45;;;26.25;;
74335;SDS011;62755;-33.398;-70.572;2023-09-07T04:32:54;34.17;;;15.00;;
74335;SDS011;62755;-33.398;-70.572;2023-09-07T04:35:27;91.80;;;35.75;;
74335;SDS011;62755;-33.398;-70.572;2023-09-07T04:37:58;32.40;;;12.55;;
74335;SDS011;62755;-33.398;-70.572;2023-09-07T04:40:27;53.40;;;19.70;;
74335;SDS011;62755;-33.398;-70.572;2023-09-07T04:42:57;69.32;;;27.33;;
74335;SDS011;62755;-33.398;-70.572;2023-09-07T04:45:27;39.05;;;16.17;;
74335;SDS011;62755;-33.398;-70.572;2023-09-07T04:47:58;10.82;;;4.88;;
74335;SDS011;62755;-33.398;-70.572;2023-09-07T04:50:27;32.15;;;12.73;;
74335;SDS011;62755;-33.398;-70.572;2023-09-07T04:52:57;15.70;;;6.18;;
74335;SDS011;62755;-33.398;-70.572;2023-09-07T04:55:26;16.20;;;5.78;;
74335;SDS011;62755;-33.398;-70.572;2023-09-07T04:57:55;11.57;;;5.78;;
74335;SDS011;62755;-33.398;-70.572;2023-09-07T05:00:25;8.70;;;3.38;;
74335;SDS011;62755;-33.398;-70.572;2023-09-07T05:02:54;14.45;;;5.82;;
74335;SDS011;62755;-33.398;-70.572;2023-09-07T05:05:25;14.40;;;6.25;;
74335;SDS011;62755;-33.398;-70.572;2023-09-07T05:07:55;8.75;;;2.70;;
74335;SDS011;62755;-33.398;-70.572;2023-09-07T05:10:24;10.50;;;2.97;;
74335;SDS011;62755;-33.398;-70.572;2023-09-07T05:12:54;9.05;;;4.28;;
74335;SDS011;62755;-33.398;-70.572;2023-09-07T05:15:23;3.78;;;1.02;;
74335;SDS011;62755;-33.398;-70.572;2023-09-07T05:17:53;5.13;;;1.95;;
74335;SDS011;62755;-33.398;-70.572;2023-09-07T05:20:24;6.65;;;2.05;;
74335;SDS011;62755;-33.398;-70.572;2023-09-07T05:22:54;5.65;;;1.50;;
74335;SDS011;62755;-33.398;-70.572;2023-09-07T05:25:25;6.68;;;1.75;;
74335;SDS011;62755;-33.398;-70.572;2023-09-07T05:27:54;6.18;;;2.70;;
74335;SDS011;62755;-33.398;-70.572;2023-09-07T05:30:24;6.60;;;2.88;;
74335;SDS011;62755;-33.398;-70.572;2023-09-07T05:32:53;4.05;;;2.90;;
74335;SDS011;62755;-33.398;-70.572;2023-09-07T05:35:24;10.10;;;4.15;;
74335;SDS011;62755;-33.398;-70.572;2023-09-07T05:37:58;9.38;;;4.90;;
74335;SDS011;62755;-33.398;-70.572;2023-09-07T05:40:27;10.35;;;5.70;;
74335;SDS011;62755;-33.398;-70.572;2023-09-07T05:42:57;9.65;;;6.30;;
74335;SDS011;62755;-33.398;-70.572;2023-09-07T05:45:26;12.40;;;6.70;;
74335;SDS011;62755;-33.398;-70.572;2023-09-07T05:47:55;10.25;;;4.88;;
74335;SDS011;62755;-33.398;-70.572;2023-09-07T05:50:27;5.43;;;3.03;;
74335;SDS011;62755;-33.398;-70.572;2023-09-07T05:52:56;9.57;;;4.15;;
74335;SDS011;62755;-33.398;-70.572;2023-09-07T05:55:25;4.97;;;2.70;;
74335;SDS011;62755;-33.398;-70.572;2023-09-07T05:57:55;5.80;;;1.73;;
74335;SDS011;62755;-33.398;-70.572;2023-09-07T06:00:25;8.65;;;2.17;;
74335;SDS011;62755;-33.398;-70.572;2023-09-07T06:02:54;5.63;;;2.05;;
74335;SDS011;62755;-33.398;-70.572;2023-09-07T06:05:26;3.72;;;1.98;;
74335;SDS011;62755;-33.398;-70.572;2023-09-07T06:07:56;3.80;;;1.10;;
74335;SDS011;62755;-33.398;-70.572;2023-09-07T06:10:27;4.75;;;1.55;;
74335;SDS011;62755;-33.398;-70.572;2023-09-07T06:12:57;4.88;;;1.45;;
74335;SDS011;62755;-33.398;-70.572;2023-09-07T06:15:27;3.67;;;1.92;;
74335;SDS011;62755;-33.398;-70.572;2023-09-07T06:17:57;4.85;;;1.98;;
74335;SDS011;62755;-33.398;-70.572;2023-09-07T06:20:28;6.10;;;1.83;;
74335;SDS011;62755;-33.398;-70.572;2023-09-07T06:22:58;2.75;;;1.80;;
74335;SDS011;62755;-33.398;-70.572;2023-09-07T06:25:27;7.03;;;1.90;;
74335;SDS011;62755;-33.398;-70.572;2023-09-07T06:27:56;5.05;;;1.35;;
74335;SDS011;62755;-33.398;-70.572;2023-09-07T06:30:26;5.90;;;1.80;;
74335;SDS011;62755;-33.398;-70.572;2023-09-07T06:32:55;4.90;;;1.58;;
74335;SDS011;62755;-33.398;-70.572;2023-09-07T06:35:25;7.05;;;2.08;;
74335;SDS011;62755;-33.398;-70.572;2023-09-07T06:37:56;4.65;;;2.00;;
74335;SDS011;62755;-33.398;-70.572;2023-09-07T06:40:25;5.18;;;1.95;;
74335;SDS011;62755;-33.398;-70.572;2023-09-07T06:42:56;7.80;;;1.70;;
74335;SDS011;62755;-33.398;-70.572;2023-09-07T06:45:26;4.13;;;1.15;;
74335;SDS011;62755;-33.398;-70.572;2023-09-07T06:47:55;3.30;;;1.50;;
74335;SDS011;62755;-33.398;-70.572;2023-09-07T06:50:24;2.97;;;1.75;;
74335;SDS011;62755;-33.398;-70.572;2023-09-07T06:52:54;4.63;;;1.90;;
74335;SDS011;62755;-33.398;-70.572;2023-09-07T06:55:25;4.10;;;1.80;;
74335;SDS011;62755;-33.398;-70.572;2023-09-07T06:57:55;5.40;;;2.42;;
74335;SDS011;62755;-33.398;-70.572;2023-09-07T07:00:26;4.40;;;2.08;;
74335;SDS011;62755;-33.398;-70.572;2023-09-07T07:02:55;3.33;;;1.08;;
74335;SDS011;62755;-33.398;-70.572;2023-09-07T07:05:25;2.97;;;1.08;;
74335;SDS011;62755;-33.398;-70.572;2023-09-07T07:07:59;3.78;;;1.00;;
74335;SDS011;62755;-33.398;-70.572;2023-09-07T07:10:28;3.10;;;1.15;;
74335;SDS011;62755;-33.398;-70.572;2023-09-07T07:12:58;4.35;;;1.13;;
74335;SDS011;62755;-33.398;-70.572;2023-09-07T07:15:28;6.13;;;1.30;;
74335;SDS011;62755;-33.398;-70.572;2023-09-07T07:17:57;3.53;;;1.35;;
74335;SDS011;62755;-33.398;-70.572;2023-09-07T07:20:27;4.97;;;1.20;;
74335;SDS011;62755;-33.398;-70.572;2023-09-07T07:22:56;3.00;;;1.35;;
74335;SDS011;62755;-33.398;-70.572;2023-09-07T07:25:28;3.05;;;1.33;;
74335;SDS011;62755;-33.398;-70.572;2023-09-07T07:27:59;4.25;;;1.00;;
74335;SDS011;62755;-33.398;-70.572;2023-09-07T07:30:31;2.20;;;1.00;;
74335;SDS011;62755;-33.398;-70.572;2023-09-07T07:33:01;2.22;;;0.70;;
74335;SDS011;62755;-33.398;-70.572;2023-09-07T07:35:31;1.67;;;0.68;;
74335;SDS011;62755;-33.398;-70.572;2023-09-07T07:38:03;1.80;;;0.57;;
74335;SDS011;62755;-33.398;-70.572;2023-09-07T07:40:33;1.70;;;0.45;;
74335;SDS011;62755;-33.398;-70.572;2023-09-07T07:43:03;10.65;;;2.00;;
74335;SDS011;62755;-33.398;-70.572;2023-09-07T07:45:32;1.85;;;0.57;;
74335;SDS011;62755;-33.398;-70.572;2023-09-07T07:48:04;4.75;;;0.60;;
74335;SDS011;62755;-33.398;-70.572;2023-09-07T07:50:37;1.20;;;0.40;;
74335;SDS011;62755;-33.398;-70.572;2023-09-07T07:53:08;0.80;;;0.30;;
74335;SDS011;62755;-33.398;-70.572;2023-09-07T07:55:38;1.13;;;0.32;;
74335;SDS011;62755;-33.398;-70.572;2023-09-07T07:58:07;0.40;;;0.20;;
74335;SDS011;62755;-33.398;-70.572;2023-09-07T08:00:38;2.83;;;0.32;;
74335;SDS011;62755;-33.398;-70.572;2023-09-07T08:03:10;2.38;;;0.20;;
74335;SDS011;62755;-33.398;-70.572;2023-09-07T08:05:40;0.30;;;0.20;;
74335;SDS011;62755;-33.398;-70.572;2023-09-07T08:08:11;1.00;;;0.32;;
74335;SDS011;62755;-33.398;-70.572;2023-09-07T08:10:41;2.13;;;0.30;;
74335;SDS011;62755;-33.398;-70.572;2023-09-07T08:13:11;0.70;;;0.20;;
74335;SDS011;62755;-33.398;-70.572;2023-09-07T08:15:41;0.38;;;0.10;;
74335;SDS011;62755;-33.398;-70.572;2023-09-07T08:18:11;2.67;;;0.28;;
74335;SDS011;62755;-33.398;-70.572;2023-09-07T08:20:41;0.50;;;0.25;;
74335;SDS011;62755;-33.398;-70.572;2023-09-07T08:23:12;0.25;;;0.10;;
74335;SDS011;62755;-33.398;-70.572;2023-09-07T08:25:42;1.55;;;0.20;;
74335;SDS011;62755;-33.398;-70.572;2023-09-07T08:28:12;1.38;;;0.20;;
74335;SDS011;62755;-33.398;-70.572;2023-09-07T08:30:44;1.67;;;0.10;;
74335;SDS011;62755;-33.398;-70.572;2023-09-07T08:33:13;1.27;;;0.30;;
74335;SDS011;62755;-33.398;-70.572;2023-09-07T08:35:43;1.65;;;0.30;;
74335;SDS011;62755;-33.398;-70.572;2023-09-07T08:38:14;0.45;;;0.20;;
74335;SDS011;62755;-33.398;-70.572;2023-09-07T08:40:44;1.33;;;0.32;;
74335;SDS011;62755;-33.398;-70.572;2023-09-07T08:43:14;0.45;;;0.30;;
74335;SDS011;62755;-33.398;-70.572;2023-09-07T08:45:46;1.95;;;0.40;;
74335;SDS011;62755;-33.398;-70.572;2023-09-07T08:48:20;0.60;;;0.22;;
74335;SDS011;62755;-33.398;-70.572;2023-09-07T08:50:50;0.40;;;0.30;;
74335;SDS011;62755;-33.398;-70.572;2023-09-07T08:53:21;2.33;;;0.50;;
74335;SDS011;62755;-33.398;-70.572;2023-09-07T08:55:52;1.50;;;0.20;;
74335;SDS011;62755;-33.398;-70.572;2023-09-07T08:58:23;3.50;;;0.38;;
74335;SDS011;62755;-33.398;-70.572;2023-09-07T09:03:28;1.30;;;0.67;;
74335;SDS011;62755;-33.398;-70.572;2023-09-07T09:05:58;2.90;;;1.13;;
74335;SDS011;62755;-33.398;-70.572;2023-09-07T09:08:30;4.50;;;0.80;;
74335;SDS011;62755;-33.398;-70.572;2023-09-07T09:11:10;2.22;;;0.80;;
74335;SDS011;62755;-33.398;-70.572;2023-09-07T09:13:40;3.97;;;1.10;;
74335;SDS011;62755;-33.398;-70.572;2023-09-07T09:16:10;2.47;;;1.17;;
74335;SDS011;62755;-33.398;-70.572;2023-09-07T09:18:47;2.95;;;1.30;;
74335;SDS011;62755;-33.398;-70.572;2023-09-07T09:21:18;2.65;;;1.48;;
74335;SDS011;62755;-33.398;-70.572;2023-09-07T09:23:50;6.22;;;1.48;;
74335;SDS011;62755;-33.398;-70.572;2023-09-07T09:26:21;4.13;;;1.90;;
74335;SDS011;62755;-33.398;-70.572;2023-09-07T09:28:50;6.90;;;2.15;;
74335;SDS011;62755;-33.398;-70.572;2023-09-07T09:31:20;9.68;;;2.78;;
74335;SDS011;62755;-33.398;-70.572;2023-09-07T09:33:49;5.68;;;2.50;;
74335;SDS011;62755;-33.398;-70.572;2023-09-07T09:36:19;8.35;;;2.97;;
74335;SDS011;62755;-33.398;-70.572;2023-09-07T09:38:51;8.82;;;4.07;;
74335;SDS011;62755;-33.398;-70.572;2023-09-07T09:41:20;6.18;;;2.08;;
74335;SDS011;62755;-33.398;-70.572;2023-09-07T09:43:51;2.42;;;1.30;;
74335;SDS011;62755;-33.398;-70.572;2023-09-07T09:46:22;7.25;;;2.95;;
74335;SDS011;62755;-33.398;-70.572;2023-09-07T09:48:53;5.18;;;1.00;;
74335;SDS011;62755;-33.398;-70.572;2023-09-07T09:51:24;1.65;;;0.85;;
74335;SDS011;62755;-33.398;-70.572;2023-09-07T09:53:57;3.10;;;0.77;;
74335;SDS011;62755;-33.398;-70.572;2023-09-07T09:56:28;3.55;;;0.60;;
74335;SDS011;62755;-33.398;-70.572;2023-09-07T09:58:58;1.88;;;0.55;;
74335;SDS011;62755;-33.398;-70.572;2023-09-07T10:01:27;1.85;;;0.40;;
74335;SDS011;62755;-33.398;-70.572;2023-09-07T10:03:57;1.17;;;0.55;;
74335;SDS011;62755;-33.398;-70.572;2023-09-07T10:06:28;2.97;;;0.60;;
74335;SDS011;62755;-33.398;-70.572;2023-09-07T10:09:03;0.90;;;0.38;;
74335;SDS011;62755;-33.398;-70.572;2023-09-07T10:11:37;1.98;;;0.80;;
74335;SDS011;62755;-33.398;-70.572;2023-09-07T10:14:07;1.70;;;0.40;;
74335;SDS011;62755;-33.398;-70.572;2023-09-07T10:16:42;6.50;;;2.95;;
74335;SDS011;62755;-33.398;-70.572;2023-09-07T10:19:16;2.85;;;0.95;;
74335;SDS011;62755;-33.398;-70.572;2023-09-07T10:21:46;5.80;;;2.75;;
74335;SDS011;62755;-33.398;-70.572;2023-09-07T10:24:27;10.48;;;4.65;;
74335;SDS011;62755;-33.398;-70.572;2023-09-07T10:27:02;14.40;;;6.35;;
74335;SDS011;62755;-33.398;-70.572;2023-09-07T10:29:40;10.27;;;5.90;;
74335;SDS011;62755;-33.398;-70.572;2023-09-07T10:32:10;16.13;;;7.80;;
74335;SDS011;62755;-33.398;-70.572;2023-09-07T10:34:41;14.32;;;8.60;;
74335;SDS011;62755;-33.398;-70.572;2023-09-07T10:37:10;15.27;;;7.88;;
74335;SDS011;62755;-33.398;-70.572;2023-09-07T10:39:42;14.80;;;7.65;;
74335;SDS011;62755;-33.398;-70.572;2023-09-07T10:42:22;12.82;;;6.60;;
74335;SDS011;62755;-33.398;-70.572;2023-09-07T10:44:53;9.75;;;6.22;;
74335;SDS011;62755;-33.398;-70.572;2023-09-07T10:47:22;9.88;;;5.82;;
74335;SDS011;62755;-33.398;-70.572;2023-09-07T10:49:52;12.80;;;5.72;;
74335;SDS011;62755;-33.398;-70.572;2023-09-07T10:52:22;14.30;;;6.18;;
74335;SDS011;62755;-33.398;-70.572;2023-09-07T10:55:00;11.43;;;6.32;;
74335;SDS011;62755;-33.398;-70.572;2023-09-07T10:57:29;10.93;;;6.40;;
74335;SDS011;62755;-33.398;-70.572;2023-09-07T10:59:59;15.75;;;7.05;;
74335;SDS011;62755;-33.398;-70.572;2023-09-07T11:02:29;13.32;;;6.30;;
74335;SDS011;62755;-33.398;-70.572;2023-09-07T11:04:58;11.90;;;6.72;;
74335;SDS011;62755;-33.398;-70.572;2023-09-07T11:07:28;15.23;;;7.15;;
74335;SDS011;62755;-33.398;-70.572;2023-09-07T11:10:00;11.57;;;7.32;;
74335;SDS011;62755;-33.398;-70.572;2023-09-07T11:12:30;13.10;;;7.88;;
74335;SDS011;62755;-33.398;-70.572;2023-09-07T11:15:07;16.33;;;8.40;;
74335;SDS011;62755;-33.398;-70.572;2023-09-07T11:17:38;12.98;;;7.38;;
74335;SDS011;62755;-33.398;-70.572;2023-09-07T11:20:08;11.90;;;7.80;;
74335;SDS011;62755;-33.398;-70.572;2023-09-07T11:22:38;16.90;;;8.30;;
74335;SDS011;62755;-33.398;-70.572;2023-09-07T11:25:09;13.90;;;8.15;;
74335;SDS011;62755;-33.398;-70.572;2023-09-07T11:27:39;15.18;;;6.93;;
74335;SDS011;62755;-33.398;-70.572;2023-09-07T11:30:10;17.77;;;8.00;;
74335;SDS011;62755;-33.398;-70.572;2023-09-07T11:32:40;23.27;;;14.10;;
74335;SDS011;62755;-33.398;-70.572;2023-09-07T11:35:09;21.92;;;10.75;;
74335;SDS011;62755;-33.398;-70.572;2023-09-07T11:37:39;18.95;;;8.85;;
74335;SDS011;62755;-33.398;-70.572;2023-09-07T11:40:11;16.13;;;8.98;;
74335;SDS011;62755;-33.398;-70.572;2023-09-07T11:42:40;21.85;;;11.73;;
74335;SDS011;62755;-33.398;-70.572;2023-09-07T11:45:10;18.38;;;9.52;;
74335;SDS011;62755;-33.398;-70.572;2023-09-07T11:47:40;19.00;;;9.43;;
74335;SDS011;62755;-33.398;-70.572;2023-09-07T11:50:09;16.42;;;8.90;;
74335;SDS011;62755;-33.398;-70.572;2023-09-07T11:52:39;13.18;;;8.10;;
74335;SDS011;62755;-33.398;-70.572;2023-09-07T11:55:10;18.88;;;8.93;;
74335;SDS011;62755;-33.398;-70.572;2023-09-07T11:57:39;19.20;;;7.70;;
74335;SDS011;62755;-33.398;-70.572;2023-09-07T12:00:09;15.05;;;8.05;;
74335;SDS011;62755;-33.398;-70.572;2023-09-07T12:02:40;13.05;;;7.22;;
74335;SDS011;62755;-33.398;-70.572;2023-09-07T12:05:10;12.85;;;7.28;;
74335;SDS011;62755;-33.398;-70.572;2023-09-07T12:07:41;14.32;;;6.82;;
74335;SDS011;62755;-33.398;-70.572;2023-09-07T12:10:12;14.57;;;6.93;;
74335;SDS011;62755;-33.398;-70.572;2023-09-07T12:12:42;20.20;;;11.23;;
74335;SDS011;62755;-33.398;-70.572;2023-09-07T12:15:11;32.10;;;15.50;;
74335;SDS011;62755;-33.398;-70.572;2023-09-07T12:17:41;21.23;;;12.90;;
74335;SDS011;62755;-33.398;-70.572;2023-09-07T12:20:10;54.08;;;26.92;;
74335;SDS011;62755;-33.398;-70.572;2023-09-07T12:22:40;40.63;;;19.77;;
74335;SDS011;62755;-33.398;-70.572;2023-09-07T12:25:09;44.22;;;20.88;;
74335;SDS011;62755;-33.398;-70.572;2023-09-07T12:27:41;39.22;;;18.90;;
74335;SDS011;62755;-33.398;-70.572;2023-09-07T12:30:12;28.55;;;13.70;;
74335;SDS011;62755;-33.398;-70.572;2023-09-07T12:32:44;23.13;;;12.63;;
74335;SDS011;62755;-33.398;-70.572;2023-09-07T12:35:14;30.10;;;14.57;;
74335;SDS011;62755;-33.398;-70.572;2023-09-07T12:37:43;21.67;;;11.15;;
74335;SDS011;62755;-33.398;-70.572;2023-09-07T12:40:14;21.23;;;9.80;;
74335;SDS011;62755;-33.398;-70.572;2023-09-07T12:42:44;20.65;;;12.73;;
74335;SDS011;62755;-33.398;-70.572;2023-09-07T12:45:14;19.13;;;11.52;;
74335;SDS011;62755;-33.398;-70.572;2023-09-07T12:47:43;26.08;;;14.20;;
74335;SDS011;62755;-33.398;-70.572;2023-09-07T12:50:13;37.53;;;18.90;;
74335;SDS011;62755;-33.398;-70.572;2023-09-07T12:52:42;32.83;;;16.77;;
74335;SDS011;62755;-33.398;-70.572;2023-09-07T12:55:12;26.48;;;14.43;;
74335;SDS011;62755;-33.398;-70.572;2023-09-07T12:57:44;27.63;;;15.23;;
74335;SDS011;62755;-33.398;-70.572;2023-09-07T13:00:14;34.88;;;14.85;;
74335;SDS011;62755;-33.398;-70.572;2023-09-07T13:02:44;19.98;;;11.00;;
74335;SDS011;62755;-33.398;-70.572;2023-09-07T13:05:14;34.85;;;17.42;;
74335;SDS011;62755;-33.398;-70.572;2023-09-07T13:07:43;36.00;;;16.75;;
74335;SDS011;62755;-33.398;-70.572;2023-09-07T13:10:15;38.38;;;18.83;;
74335;SDS011;62755;-33.398;-70.572;2023-09-07T13:12:44;52.60;;;23.48;;
74335;SDS011;62755;-33.398;-70.572;2023-09-07T13:15:14;33.60;;;17.90;;
74335;SDS011;62755;-33.398;-70.572;2023-09-07T13:17:43;39.53;;;19.83;;
74335;SDS011;62755;-33.398;-70.572;2023-09-07T13:20:13;44.85;;;19.67;;
74335;SDS011;62755;-33.398;-70.572;2023-09-07T13:22:42;42.35;;;17.83;;
74335;SDS011;62755;-33.398;-70.572;2023-09-07T13:25:12;35.38;;;15.77;;
74335;SDS011;62755;-33.398;-70.572;2023-09-07T13:27:43;21.15;;;12.07;;
74335;SDS011;62755;-33.398;-70.572;2023-09-07T13:30:12;21.83;;;12.75;;
74335;SDS011;62755;-33.398;-70.572;2023-09-07T13:32:42;27.85;;;15.52;;
74335;SDS011;62755;-33.398;-70.572;2023-09-07T13:35:12;25.27;;;11.90;;
74335;SDS011;62755;-33.398;-70.572;2023-09-07T13:37:42;25.85;;;12.95;;
74335;SDS011;62755;-33.398;-70.572;2023-09-07T13:40:12;24.67;;;12.65;;
74335;SDS011;62755;-33.398;-70.572;2023-09-07T13:42:45;19.25;;;10.25;;
74335;SDS011;62755;-33.398;-70.572;2023-09-07T13:45:16;18.95;;;9.98;;
74335;SDS011;62755;-33.398;-70.572;2023-09-07T13:47:46;21.52;;;10.38;;
74335;SDS011;62755;-33.398;-70.572;2023-09-07T13:50:15;19.05;;;10.98;;
74335;SDS011;62755;-33.398;-70.572;2023-09-07T13:52:44;19.08;;;11.63;;
74335;SDS011;62755;-33.398;-70.572;2023-09-07T13:55:15;24.88;;;11.27;;
74335;SDS011;62755;-33.398;-70.572;2023-09-07T13:57:45;17.83;;;10.70;;
74335;SDS011;62755;-33.398;-70.572;2023-09-07T14:00:15;22.60;;;14.55;;
74335;SDS011;62755;-33.398;-70.572;2023-09-07T14:02:44;21.02;;;11.85;;
74335;SDS011;62755;-33.398;-70.572;2023-09-07T14:05:13;21.02;;;10.30;;
74335;SDS011;62755;-33.398;-70.572;2023-09-07T14:07:43;19.42;;;11.25;;
74335;SDS011;62755;-33.398;-70.572;2023-09-07T14:10:12;19.52;;;9.65;;
74335;SDS011;62755;-33.398;-70.572;2023-09-07T14:12:44;18.40;;;10.13;;
74335;SDS011;62755;-33.398;-70.572;2023-09-07T14:15:14;18.98;;;10.25;;
74335;SDS011;62755;-33.398;-70.572;2023-09-07T14:17:43;26.30;;;14.68;;